createdAt,value
2023-10-29T00:00:12.371Z,24
2023-10-29T00:02:12.415Z,25
2023-10-29T00:04:12.400Z,35
2023-10-29T00:06:12.379Z,20
2023-10-29T00:09:12.419Z,27
2023-10-29T00:11:12.389Z,22
2023-10-29T00:14:12.364Z,29
2023-10-29T00:17:12.358Z,34
2023-10-29T00:19:12.346Z,27
2023-10-29T00:22:12.358Z,29
2023-10-29T00:25:12.317Z,31
2023-10-29T00:27:12.411Z,30
2023-10-29T00:30:12.365Z,38
2023-10-29T00:33:12.472Z,26
2023-10-29T00:35:12.407Z,28
2023-10-29T00:38:12.344Z,27
2023-10-29T00:41:12.323Z,26
2023-10-29T00:43:12.385Z,29
2023-10-29T00:46:12.365Z,37
2023-10-29T00:49:12.340Z,36
2023-10-29T00:51:12.352Z,37
2023-10-29T00:53:12.357Z,37
2023-10-29T00:56:12.339Z,56
2023-10-29T00:58:12.401Z,44
2023-10-29T01:01:12.396Z,44
2023-10-29T01:03:12.435Z,31
2023-10-29T01:06:12.558Z,36
2023-10-29T01:09:12.352Z,46
2023-10-29T01:11:12.366Z,46
2023-10-29T01:14:12.357Z,38
2023-10-29T01:17:12.347Z,28
2023-10-29T01:19:12.392Z,28
2023-10-29T01:22:12.367Z,40
2023-10-29T01:25:12.363Z,36
2023-10-29T01:28:12.443Z,32
2023-10-29T01:30:12.357Z,27
2023-10-29T01:33:12.378Z,30
2023-10-29T01:36:12.389Z,40
2023-10-29T01:38:12.357Z,49
2023-10-29T01:41:12.352Z,32
2023-10-29T01:43:12.745Z,34
2023-10-29T01:46:12.386Z,48
2023-10-29T01:49:12.391Z,32
2023-10-29T01:51:12.363Z,35
2023-10-29T01:54:12.395Z,36
2023-10-29T01:57:12.382Z,26
2023-10-29T02:00:12.405Z,47
2023-10-29T02:03:12.467Z,26
2023-10-29T02:05:12.380Z,25
2023-10-29T02:07:12.371Z,28
2023-10-29T02:10:12.375Z,33
2023-10-29T02:13:12.366Z,43
2023-10-29T02:16:12.402Z,38
2023-10-29T02:18:12.483Z,43
2023-10-29T02:21:12.389Z,35
2023-10-29T02:24:12.381Z,35
2023-10-29T02:26:12.371Z,34
2023-10-29T02:29:12.392Z,34
2023-10-29T02:32:12.401Z,30
2023-10-29T02:34:12.369Z,28
2023-10-29T02:37:12.375Z,31
2023-10-29T02:40:12.357Z,26
2023-10-29T02:42:12.432Z,28
2023-10-29T02:45:12.379Z,32
2023-10-29T02:48:12.498Z,36
2023-10-29T02:50:12.377Z,39
2023-10-29T02:53:12.388Z,46
2023-10-29T02:55:12.381Z,56
2023-10-29T02:57:12.368Z,42
2023-10-29T03:00:12.395Z,49
2023-10-29T03:03:12.451Z,40
2023-10-29T03:05:12.387Z,41
2023-10-29T03:08:12.388Z,34
2023-10-29T03:10:12.375Z,31
2023-10-29T03:12:12.381Z,27
2023-10-29T03:15:12.369Z,42
2023-10-29T03:17:12.379Z,30
2023-10-29T03:20:12.383Z,56
2023-10-29T03:23:12.388Z,35
2023-10-29T03:25:12.459Z,31
2023-10-29T03:28:12.375Z,29
2023-10-29T03:31:12.489Z,41
2023-10-29T03:34:12.415Z,23
2023-10-29T03:37:12.389Z,24
2023-10-29T03:40:12.396Z,29
2023-10-29T03:43:12.382Z,24
2023-10-29T03:45:12.394Z,27
2023-10-29T03:48:12.404Z,24
2023-10-29T03:50:12.363Z,29
2023-10-29T03:52:12.383Z,29
2023-10-29T03:55:12.378Z,71
2023-10-29T03:57:12.373Z,48
2023-10-29T04:00:12.391Z,30
2023-10-29T04:02:12.422Z,26
2023-10-29T04:05:12.585Z,34
2023-10-29T04:07:12.389Z,33
2023-10-29T04:09:12.406Z,43
2023-10-29T04:12:12.381Z,32
2023-10-29T04:15:12.416Z,31
2023-10-29T04:18:12.468Z,32
2023-10-29T04:20:12.388Z,33
2023-10-29T04:23:12.385Z,32
2023-10-29T04:26:12.449Z,27
2023-10-29T04:29:12.350Z,28
2023-10-29T04:31:12.399Z,24
2023-10-29T04:34:12.361Z,33
2023-10-29T04:36:12.363Z,34
2023-10-29T04:38:12.471Z,33
2023-10-29T04:41:12.377Z,31
2023-10-29T04:44:12.390Z,31
2023-10-29T04:46:12.850Z,25
2023-10-29T04:49:12.384Z,25
2023-10-29T04:51:12.389Z,24
2023-10-29T04:53:12.430Z,21
2023-10-29T04:56:12.438Z,21
2023-10-29T04:59:12.405Z,24
2023-10-29T05:02:12.388Z,23
2023-10-29T05:05:12.385Z,23
2023-10-29T05:08:12.432Z,17
2023-10-29T05:10:12.416Z,21
2023-10-29T05:13:12.402Z,20
2023-10-29T05:16:12.583Z,24
2023-10-29T05:18:12.464Z,21
2023-10-29T05:21:12.395Z,19
2023-10-29T05:23:12.399Z,15
2023-10-29T05:26:12.445Z,13
2023-10-29T05:28:12.396Z,15
2023-10-29T05:30:12.436Z,8
2023-10-29T05:33:12.489Z,13
2023-10-29T05:36:12.386Z,9
2023-10-29T05:38:12.374Z,8
2023-10-29T05:41:12.393Z,12
2023-10-29T05:43:12.402Z,14
2023-10-29T05:46:12.388Z,14
2023-10-29T05:48:12.468Z,10
2023-10-29T05:51:12.369Z,12
2023-10-29T05:53:12.379Z,11
2023-10-29T05:56:12.439Z,11
2023-10-29T05:58:12.438Z,12
2023-10-29T06:01:12.392Z,13
2023-10-29T06:04:12.536Z,12
2023-10-29T06:07:12.569Z,10
2023-10-29T06:09:21.255Z,11
2023-10-29T06:12:12.399Z,9
2023-10-29T06:15:12.521Z,8
2023-10-29T06:17:25.992Z,12
2023-10-29T06:20:12.393Z,12
2023-10-29T06:22:12.375Z,10
2023-10-29T06:24:12.446Z,14
2023-10-29T06:27:12.428Z,9
2023-10-29T06:29:12.418Z,11
2023-10-29T06:32:12.393Z,11
2023-10-29T06:34:12.374Z,11
2023-10-29T06:36:12.450Z,12
2023-10-29T06:39:12.506Z,12
2023-10-29T06:41:12.398Z,11
2023-10-29T06:43:12.403Z,11
2023-10-29T06:46:12.405Z,10
2023-10-29T06:48:12.550Z,12
2023-10-29T06:51:12.372Z,11
2023-10-29T06:54:12.358Z,9
2023-10-29T06:56:12.386Z,10
2023-10-29T06:59:12.355Z,11
2023-10-29T07:01:12.397Z,10
2023-10-29T07:04:12.515Z,9
2023-10-29T07:06:12.436Z,9
2023-10-29T07:09:12.406Z,7
2023-10-29T07:11:12.434Z,9
2023-10-29T07:14:12.398Z,10
2023-10-29T07:16:12.451Z,12
2023-10-29T07:19:12.448Z,13
2023-10-29T07:22:12.455Z,9
2023-10-29T07:24:12.416Z,11
2023-10-29T07:26:12.400Z,8
2023-10-29T07:29:12.412Z,10
2023-10-29T07:31:14.552Z,13
2023-10-29T07:33:12.592Z,11
2023-10-29T07:36:12.419Z,10
2023-10-29T07:39:12.480Z,12
2023-10-29T07:41:12.398Z,16
2023-10-29T07:43:12.424Z,14
2023-10-29T07:46:12.723Z,13
2023-10-29T07:49:12.534Z,17
2023-10-29T07:51:12.429Z,15
2023-10-29T07:54:12.439Z,14
2023-10-29T07:56:12.451Z,14
2023-10-29T07:59:12.439Z,14
2023-10-29T08:01:12.483Z,14
2023-10-29T08:04:12.450Z,14
2023-10-29T08:06:12.409Z,15
2023-10-29T08:08:12.477Z,12
2023-10-29T08:11:12.437Z,14
2023-10-29T08:13:12.487Z,13
2023-10-29T08:16:12.464Z,13
2023-10-29T08:18:12.439Z,13
2023-10-29T08:21:12.426Z,12
2023-10-29T08:23:12.468Z,13
2023-10-29T08:26:12.387Z,13
2023-10-29T08:28:12.418Z,13
2023-10-29T08:30:12.487Z,12
2023-10-29T08:33:12.535Z,14
2023-10-29T08:35:12.504Z,13
2023-10-29T08:38:12.395Z,12
2023-10-29T08:40:12.482Z,13
2023-10-29T08:43:12.426Z,14
2023-10-29T08:46:12.522Z,13
2023-10-29T08:49:12.393Z,14
2023-10-29T08:51:12.485Z,13
2023-10-29T08:54:12.500Z,11
2023-10-29T08:56:12.433Z,13
2023-10-29T08:58:12.403Z,12
2023-10-29T09:01:12.475Z,13
2023-10-29T09:04:12.462Z,11
2023-10-29T09:06:12.533Z,14
2023-10-29T09:09:12.432Z,12
2023-10-29T09:12:12.430Z,14
2023-10-29T09:15:12.521Z,14
2023-10-29T09:18:12.544Z,14
2023-10-29T09:21:12.444Z,15
2023-10-29T09:24:12.459Z,17
2023-10-29T09:26:12.419Z,17
2023-10-29T09:28:12.469Z,17
2023-10-29T09:30:12.513Z,14
2023-10-29T09:33:12.513Z,17
2023-10-29T09:36:12.437Z,15
2023-10-29T09:38:12.441Z,17
2023-10-29T09:41:12.445Z,15
2023-10-29T09:43:12.425Z,17
2023-10-29T09:46:12.454Z,15
2023-10-29T09:49:12.425Z,18
2023-10-29T09:51:12.441Z,14
2023-10-29T09:53:12.452Z,14
2023-10-29T09:56:12.439Z,13
2023-10-29T09:59:12.400Z,14
2023-10-29T10:01:12.462Z,14
2023-10-29T10:04:12.882Z,15
2023-10-29T10:07:12.425Z,17
2023-10-29T10:09:12.443Z,14
2023-10-29T10:14:12.460Z,19
2023-10-29T10:17:12.472Z,16
2023-10-29T10:20:12.513Z,17
2023-10-29T10:22:12.455Z,17
2023-10-29T10:25:12.427Z,21
2023-10-29T10:28:12.429Z,16
2023-10-29T10:30:12.436Z,19
2023-10-29T10:32:12.469Z,18
2023-10-29T10:34:12.485Z,19
2023-10-29T10:36:12.478Z,15
2023-10-29T10:39:12.678Z,18
2023-10-29T10:42:12.475Z,19
2023-10-29T10:44:12.431Z,20
2023-10-29T10:46:12.492Z,19
2023-10-29T10:49:12.391Z,16
2023-10-29T10:51:12.583Z,16
2023-10-29T10:54:12.457Z,14
2023-10-29T10:57:12.459Z,17
2023-10-29T10:59:12.481Z,18
2023-10-29T11:02:12.421Z,16
2023-10-29T11:05:12.483Z,21
2023-10-29T11:08:12.427Z,21
2023-10-29T11:11:12.427Z,19
2023-10-29T11:13:12.499Z,23
2023-10-29T11:16:12.525Z,25
2023-10-29T11:19:12.447Z,20
2023-10-29T11:22:12.433Z,21
2023-10-29T11:25:12.526Z,23
2023-10-29T11:28:12.477Z,16
2023-10-29T11:31:12.417Z,19
2023-10-29T11:33:12.478Z,19
2023-10-29T11:36:12.449Z,19
2023-10-29T11:38:12.429Z,18
2023-10-29T11:41:12.441Z,20
2023-10-29T11:44:12.436Z,18
2023-10-29T11:47:12.440Z,13
2023-10-29T11:50:12.480Z,18
2023-10-29T11:52:12.471Z,20
2023-10-29T11:55:12.482Z,20
2023-10-29T11:58:12.413Z,17
2023-10-29T12:00:12.492Z,17
2023-10-29T12:03:12.485Z,19
2023-10-29T12:06:12.474Z,18
2023-10-29T12:08:12.442Z,16
2023-10-29T12:11:12.438Z,23
2023-10-29T12:13:12.532Z,19
2023-10-29T12:15:12.524Z,19
2023-10-29T12:18:12.467Z,16
2023-10-29T12:21:12.592Z,17
2023-10-29T12:24:12.485Z,16
2023-10-29T12:26:12.480Z,18
2023-10-29T12:29:12.433Z,18
2023-10-29T12:31:12.450Z,16
2023-10-29T12:33:12.471Z,14
2023-10-29T12:35:12.449Z,18
2023-10-29T12:38:12.437Z,19
2023-10-29T12:40:12.439Z,15
2023-10-29T12:43:12.452Z,17
2023-10-29T12:46:12.527Z,17
2023-10-29T12:49:12.457Z,23
2023-10-29T12:52:12.492Z,19
2023-10-29T12:54:12.524Z,22
2023-10-29T12:57:12.536Z,20
2023-10-29T12:59:12.460Z,21
2023-10-29T13:02:12.457Z,17
2023-10-29T13:04:12.449Z,20
2023-10-29T13:06:12.474Z,19
2023-10-29T13:08:12.476Z,20
2023-10-29T13:11:12.437Z,20
2023-10-29T13:13:12.510Z,24
2023-10-29T13:16:12.499Z,18
2023-10-29T13:18:12.515Z,20
2023-10-29T13:20:12.448Z,19
2023-10-29T13:23:12.462Z,19
2023-10-29T13:26:12.492Z,22
2023-10-29T13:29:12.448Z,24
2023-10-29T13:31:12.541Z,18
2023-10-29T13:34:12.452Z,23
2023-10-29T13:37:12.463Z,19
2023-10-29T13:39:12.552Z,19
2023-10-29T13:42:12.492Z,24
2023-10-29T13:44:12.471Z,23
2023-10-29T13:46:12.508Z,18
2023-10-29T13:49:12.502Z,18
2023-10-29T13:52:12.485Z,23
2023-10-29T13:55:12.459Z,19
2023-10-29T13:57:12.497Z,20
2023-10-29T13:59:12.497Z,19
2023-10-29T14:02:12.523Z,18
2023-10-29T14:05:12.442Z,17
2023-10-29T14:07:12.475Z,15
2023-10-29T14:09:12.530Z,18
2023-10-29T14:11:12.467Z,16
2023-10-29T14:13:12.571Z,13
2023-10-29T14:16:12.621Z,13
2023-10-29T14:18:12.523Z,10
2023-10-29T14:20:12.500Z,8
2023-10-29T14:23:12.452Z,7
2023-10-29T14:25:12.477Z,7
2023-10-29T14:28:12.462Z,7
2023-10-29T14:30:12.602Z,9
2023-10-29T14:33:12.560Z,7
2023-10-29T14:35:12.457Z,7
2023-10-29T14:37:12.513Z,7
2023-10-29T14:40:12.503Z,5
2023-10-29T14:43:21.652Z,6
2023-10-29T14:46:12.549Z,5
2023-10-29T14:48:12.527Z,6
2023-10-29T14:50:12.496Z,7
2023-10-29T14:53:12.502Z,7
2023-10-29T14:55:12.502Z,5
2023-10-29T14:58:12.502Z,5
2023-10-29T15:00:12.538Z,6
2023-10-29T15:03:12.669Z,6
2023-10-29T15:05:12.475Z,7
2023-10-29T15:08:12.514Z,7
2023-10-29T15:11:12.499Z,4
2023-10-29T15:14:12.431Z,4
2023-10-29T15:16:12.513Z,7
2023-10-29T15:19:18.877Z,5
2023-10-29T15:21:12.509Z,4
2023-10-29T15:23:12.523Z,4
2023-10-29T15:26:12.509Z,3
2023-10-29T15:29:12.466Z,4
2023-10-29T15:32:12.504Z,3
2023-10-29T15:34:12.466Z,4
2023-10-29T15:36:12.563Z,5
2023-10-29T15:39:12.503Z,3
2023-10-29T15:41:12.516Z,5
2023-10-29T15:44:12.528Z,6
2023-10-29T15:47:12.455Z,4
2023-10-29T15:49:12.555Z,5
2023-10-29T15:52:12.465Z,4
2023-10-29T15:54:12.512Z,6
2023-10-29T15:57:12.489Z,5
2023-10-29T15:59:12.771Z,3
2023-10-29T16:02:12.472Z,5
2023-10-29T16:04:12.513Z,5
2023-10-29T16:07:12.474Z,8
2023-10-29T16:10:12.491Z,4
2023-10-29T16:12:12.568Z,5
2023-10-29T16:15:12.444Z,5
2023-10-29T16:18:12.500Z,4
2023-10-29T16:20:12.471Z,4
2023-10-29T16:22:12.531Z,6
2023-10-29T16:25:12.476Z,5
2023-10-29T16:28:12.597Z,5
2023-10-29T16:31:12.449Z,6
2023-10-29T16:34:12.532Z,4
2023-10-29T16:37:12.479Z,6
2023-10-29T16:40:12.482Z,5
2023-10-29T16:44:12.510Z,4
2023-10-29T16:47:12.498Z,5
2023-10-29T16:49:12.489Z,5
2023-10-29T16:52:12.456Z,4
2023-10-29T16:54:12.515Z,4
2023-10-29T16:57:13.691Z,5
2023-10-29T17:00:12.554Z,4
2023-10-29T17:02:12.613Z,5
2023-10-29T17:05:12.515Z,7
2023-10-29T17:08:12.466Z,5
2023-10-29T17:10:12.533Z,6
2023-10-29T17:13:12.505Z,5
2023-10-29T17:15:12.520Z,5
2023-10-29T17:17:12.533Z,6
2023-10-29T17:20:12.498Z,4
2023-10-29T17:23:12.456Z,7
2023-10-29T17:25:12.534Z,3
2023-10-29T17:28:12.524Z,3
2023-10-29T17:31:12.490Z,4
2023-10-29T17:34:12.482Z,5
2023-10-29T17:36:12.569Z,3
2023-10-29T17:39:12.598Z,6
2023-10-29T17:42:12.590Z,5
2023-10-29T17:44:12.527Z,4
2023-10-29T17:47:12.464Z,4
2023-10-29T17:50:12.497Z,3
2023-10-29T17:52:12.453Z,5
2023-10-29T17:54:12.507Z,5
2023-10-29T17:56:12.733Z,6
2023-10-29T17:59:12.469Z,5
2023-10-29T18:02:12.535Z,3
2023-10-29T18:05:12.591Z,4
2023-10-29T18:08:12.480Z,4
2023-10-29T18:10:12.487Z,3
2023-10-29T18:13:12.504Z,4
2023-10-29T18:16:12.541Z,5
2023-10-29T18:18:12.582Z,9
2023-10-29T18:20:12.538Z,8
2023-10-29T18:23:12.643Z,5
2023-10-29T18:25:12.466Z,6
2023-10-29T18:27:12.496Z,6
2023-10-29T18:30:12.538Z,4
2023-10-29T18:33:12.887Z,7
2023-10-29T18:36:12.551Z,6
2023-10-29T18:38:12.528Z,6
2023-10-29T18:41:12.491Z,4
2023-10-29T18:44:12.497Z,8
2023-10-29T18:46:12.510Z,6
2023-10-29T18:49:12.479Z,7
2023-10-29T18:52:12.509Z,8
2023-10-29T18:54:12.550Z,8
2023-10-29T18:57:12.570Z,6
2023-10-29T19:00:12.603Z,8
2023-10-29T19:02:12.507Z,13
2023-10-29T19:05:12.492Z,13
2023-10-29T19:07:12.492Z,10
2023-10-29T19:10:12.475Z,10
2023-10-29T19:12:12.657Z,9
2023-10-29T19:15:12.535Z,11
2023-10-29T19:17:12.633Z,11
2023-10-29T19:20:12.501Z,14
2023-10-29T19:23:12.478Z,11
2023-10-29T19:25:12.681Z,12
2023-10-29T19:28:12.852Z,11
2023-10-29T19:31:23.845Z,8
2023-10-29T19:35:12.505Z,10
2023-10-29T19:37:12.526Z,11
2023-10-29T19:39:12.560Z,10
2023-10-29T19:42:12.933Z,10
2023-10-29T19:45:12.510Z,9
2023-10-29T19:47:12.579Z,10
2023-10-29T19:49:12.577Z,10
2023-10-29T19:52:12.507Z,14
2023-10-29T19:54:12.540Z,14
2023-10-29T19:57:12.503Z,11
2023-10-29T19:59:12.498Z,9
2023-10-29T20:02:12.491Z,9
2023-10-29T20:04:12.633Z,11
2023-10-29T20:07:12.529Z,9
2023-10-29T20:10:12.489Z,9
2023-10-29T20:12:12.506Z,11
2023-10-29T20:15:12.523Z,8
2023-10-29T20:18:12.520Z,9
2023-10-29T20:20:12.520Z,7
2023-10-29T20:23:12.518Z,6
2023-10-29T20:25:12.498Z,8
2023-10-29T20:28:12.497Z,10
2023-10-29T20:31:12.484Z,8
2023-10-29T20:34:12.518Z,9
2023-10-29T20:36:12.546Z,9
2023-10-29T20:38:12.653Z,10
2023-10-29T20:41:12.652Z,8
2023-10-29T20:44:12.685Z,9
2023-10-29T20:47:12.506Z,10
2023-10-29T20:49:12.512Z,8
2023-10-29T20:52:12.523Z,8
2023-10-29T20:55:12.533Z,8
2023-10-29T20:58:12.498Z,9
2023-10-29T21:00:12.555Z,16
2023-10-29T21:03:12.592Z,8
2023-10-29T21:06:14.102Z,13
2023-10-29T21:08:12.511Z,14
2023-10-29T21:10:12.579Z,11
2023-10-29T21:13:12.509Z,14
2023-10-29T21:15:12.531Z,13
2023-10-29T21:18:12.581Z,26
2023-10-29T21:20:12.550Z,13
2023-10-29T21:22:12.542Z,13
2023-10-29T21:25:12.529Z,12
2023-10-29T21:27:12.625Z,9
2023-10-29T21:30:12.504Z,13
2023-10-29T21:32:12.530Z,13
2023-10-29T21:34:12.581Z,11
2023-10-29T21:37:12.510Z,14
2023-10-29T21:39:12.541Z,14
2023-10-29T21:42:12.519Z,11
2023-10-29T21:44:12.493Z,10
2023-10-29T21:46:12.618Z,12
2023-10-29T21:49:12.492Z,12
2023-10-29T21:51:12.592Z,10
2023-10-29T21:54:12.574Z,11
2023-10-29T21:56:12.541Z,12
2023-10-29T21:59:12.528Z,10
2023-10-29T22:02:12.525Z,12
2023-10-29T22:04:12.585Z,14
2023-10-29T22:07:12.551Z,14
2023-10-29T22:09:12.587Z,15
2023-10-29T22:12:12.538Z,11
2023-10-29T22:14:12.537Z,13
2023-10-29T22:16:12.556Z,9
2023-10-29T22:19:12.494Z,13
2023-10-29T22:21:12.595Z,12
2023-10-29T22:24:12.596Z,11
2023-10-29T22:26:12.659Z,14
2023-10-29T22:29:12.499Z,11
2023-10-29T22:31:12.521Z,12
2023-10-29T22:34:12.553Z,11
2023-10-29T22:37:12.491Z,13
2023-10-29T22:39:12.524Z,11
2023-10-29T22:42:12.553Z,8
2023-10-29T22:45:12.587Z,10
2023-10-29T22:48:12.594Z,8
2023-10-29T22:50:12.539Z,13
2023-10-29T22:53:12.522Z,10
2023-10-29T22:56:12.514Z,11
2023-10-29T22:59:12.511Z,16
2023-10-29T23:01:12.601Z,12
2023-10-29T23:04:12.613Z,11
2023-10-29T23:07:12.515Z,9
2023-10-29T23:10:12.542Z,13
2023-10-29T23:12:12.623Z,10
2023-10-29T23:15:12.554Z,11
2023-10-29T23:18:12.595Z,8
2023-10-29T23:20:12.563Z,12
2023-10-29T23:23:12.513Z,14
2023-10-29T23:25:12.526Z,11
2023-10-29T23:28:16.906Z,10
2023-10-29T23:30:12.527Z,12
2023-10-29T23:32:12.538Z,9
2023-10-29T23:34:12.540Z,8
2023-10-29T23:37:12.551Z,11
2023-10-29T23:39:12.535Z,10
2023-10-29T23:42:12.564Z,12
2023-10-29T23:44:12.524Z,9
2023-10-29T23:47:12.526Z,12
2023-10-29T23:50:12.511Z,10
2023-10-29T23:52:12.520Z,11
2023-10-29T23:55:12.513Z,13
2023-10-29T23:57:12.641Z,11
2023-10-29T23:59:12.515Z,10
